createdAt,value
2023-05-09T00:01:10.032Z,9.74
2023-05-09T00:03:36.888Z,9.74
2023-05-09T00:06:04.673Z,9.75
2023-05-09T00:08:31.648Z,9.76
2023-05-09T00:10:58.548Z,9.75
2023-05-09T00:13:26.102Z,9.76
2023-05-09T00:15:57.575Z,9.75
2023-05-09T00:18:24.632Z,9.75
2023-05-09T00:20:51.674Z,9.75
2023-05-09T00:23:18.638Z,9.75
2023-05-09T00:25:45.791Z,9.75
2023-05-09T00:28:12.843Z,9.76
2023-05-09T00:30:41.426Z,9.75
2023-05-09T00:33:08.325Z,9.74
2023-05-09T00:35:35.641Z,9.73
2023-05-09T00:38:02.496Z,9.73
2023-05-09T00:40:29.386Z,9.73
2023-05-09T00:42:58.470Z,9.72
2023-05-09T00:45:25.503Z,9.71
2023-05-09T00:47:52.695Z,9.71
2023-05-09T00:50:19.753Z,9.71
2023-05-09T00:52:46.632Z,9.71
2023-05-09T00:55:13.680Z,9.71
2023-05-09T00:57:40.963Z,9.71
2023-05-09T01:00:13.504Z,9.70
2023-05-09T01:02:48.705Z,9.70
2023-05-09T01:05:15.976Z,9.70
2023-05-09T01:07:52.617Z,9.70
2023-05-09T01:10:32.573Z,9.69
2023-05-09T01:13:23.122Z,9.69
2023-05-09T01:16:06.561Z,9.66
2023-05-09T01:18:37.002Z,9.65
2023-05-09T01:21:09.069Z,9.64
2023-05-09T01:23:45.294Z,9.63
2023-05-09T01:26:19.541Z,9.64
2023-05-09T01:29:01.974Z,9.63
2023-05-09T01:31:29.039Z,9.64
2023-05-09T01:33:58.314Z,9.64
2023-05-09T01:36:25.473Z,9.63
2023-05-09T01:38:52.353Z,9.63
2023-05-09T01:41:19.274Z,9.62
2023-05-09T01:43:46.452Z,9.62
2023-05-09T01:46:13.621Z,9.60
2023-05-09T01:48:41.456Z,9.60
2023-05-09T01:51:10.146Z,9.58
2023-05-09T01:53:36.965Z,9.58
2023-05-09T01:56:04.566Z,9.58
2023-05-09T01:58:32.536Z,9.58
2023-05-09T02:01:00.622Z,9.58
2023-05-09T02:03:27.721Z,9.58
2023-05-09T02:05:55.084Z,9.58
2023-05-09T02:08:22.282Z,9.57
2023-05-09T02:10:49.747Z,9.56
2023-05-09T02:13:16.696Z,9.56
2023-05-09T02:15:44.366Z,9.56
2023-05-09T02:18:11.365Z,9.55
2023-05-09T02:20:38.271Z,9.54
2023-05-09T02:23:05.219Z,9.54
2023-05-09T02:25:33.306Z,9.53
2023-05-09T02:28:00.241Z,9.54
2023-05-09T02:30:27.257Z,9.53
2023-05-09T02:32:57.809Z,9.51
2023-05-09T02:35:25.498Z,9.51
2023-05-09T02:37:52.455Z,9.51
2023-05-09T02:40:20.037Z,9.51
2023-05-09T02:42:46.967Z,9.52
2023-05-09T02:45:14.019Z,9.52
2023-05-09T02:47:41.154Z,9.53
2023-05-09T02:50:08.846Z,9.53
2023-05-09T02:52:36.217Z,9.54
2023-05-09T02:55:03.577Z,9.54
2023-05-09T02:57:31.332Z,9.56
2023-05-09T02:59:58.286Z,9.58
2023-05-09T03:02:25.608Z,9.59
2023-05-09T03:04:52.727Z,9.61
2023-05-09T03:07:19.533Z,9.62
2023-05-09T03:09:46.511Z,9.64
2023-05-09T03:12:13.447Z,9.65
2023-05-09T03:14:40.376Z,9.66
2023-05-09T03:17:07.865Z,9.68
2023-05-09T03:19:35.399Z,9.70
2023-05-09T03:22:02.276Z,9.73
2023-05-09T03:24:30.997Z,9.76
2023-05-09T03:26:57.920Z,9.78
2023-05-09T03:29:25.502Z,9.80
2023-05-09T03:31:52.758Z,9.83
2023-05-09T03:34:19.960Z,9.87
2023-05-09T03:36:46.824Z,9.90
2023-05-09T03:39:14.536Z,9.93
2023-05-09T03:41:44.366Z,9.98
2023-05-09T03:44:11.494Z,10.01
2023-05-09T03:46:38.420Z,10.03
2023-05-09T03:49:05.800Z,10.08
2023-05-09T03:51:32.864Z,10.11
2023-05-09T03:54:00.630Z,10.14
2023-05-09T03:56:28.700Z,10.17
2023-05-09T03:58:55.757Z,10.20
2023-05-09T04:01:22.842Z,10.22
2023-05-09T04:03:50.429Z,10.25
2023-05-09T04:06:17.328Z,10.27
2023-05-09T04:08:44.703Z,10.28
2023-05-09T04:11:11.643Z,10.33
2023-05-09T04:13:40.561Z,10.36
2023-05-09T04:16:17.447Z,10.39
2023-05-09T04:18:44.773Z,10.40
2023-05-09T04:21:11.723Z,10.42
2023-05-09T04:23:39.494Z,10.42
2023-05-09T04:26:07.583Z,10.43
2023-05-09T04:28:35.384Z,10.43
2023-05-09T04:31:03.310Z,10.44
2023-05-09T04:33:31.086Z,10.46
2023-05-09T04:36:00.673Z,10.48
2023-05-09T04:38:27.877Z,10.52
2023-05-09T04:40:55.432Z,10.59
2023-05-09T04:43:22.319Z,10.66
2023-05-09T04:45:49.262Z,10.73
2023-05-09T04:48:16.167Z,10.77
2023-05-09T04:50:43.459Z,10.83
2023-05-09T04:53:11.297Z,10.92
2023-05-09T04:55:38.577Z,11.02
2023-05-09T04:58:06.014Z,11.12
2023-05-09T05:00:32.975Z,11.22
2023-05-09T05:03:00.062Z,11.28
2023-05-09T05:05:28.059Z,11.32
2023-05-09T05:07:55.285Z,11.37
2023-05-09T05:10:25.809Z,11.40
2023-05-09T05:12:59.294Z,11.45
2023-05-09T05:15:27.262Z,11.51
2023-05-09T05:17:54.720Z,11.60
2023-05-09T05:20:22.598Z,11.67
2023-05-09T05:22:49.754Z,11.76
2023-05-09T05:25:18.680Z,11.88
2023-05-09T05:27:46.008Z,11.99
2023-05-09T05:30:15.971Z,12.06
2023-05-09T05:32:44.063Z,12.09
2023-05-09T05:35:12.366Z,12.15
2023-05-09T05:37:40.260Z,12.25
2023-05-09T05:40:08.246Z,12.35
2023-05-09T05:42:35.802Z,12.44
2023-05-09T05:45:04.801Z,12.51
2023-05-09T05:47:33.682Z,12.57
2023-05-09T05:50:01.966Z,12.63
2023-05-09T05:52:29.742Z,12.70
2023-05-09T05:54:57.434Z,12.80
2023-05-09T05:57:24.672Z,12.90
2023-05-09T05:59:52.574Z,13.03
2023-05-09T06:02:19.500Z,13.14
2023-05-09T06:04:46.736Z,13.25
2023-05-09T06:07:14.157Z,13.38
2023-05-09T06:09:41.065Z,13.50
2023-05-09T06:12:08.369Z,13.58
2023-05-09T06:14:35.423Z,13.69
2023-05-09T06:17:02.402Z,13.83
2023-05-09T06:19:29.417Z,13.99
2023-05-09T06:21:56.543Z,14.10
2023-05-09T06:24:34.460Z,14.18
2023-05-09T06:27:04.366Z,14.29
2023-05-09T06:29:31.241Z,14.42
2023-05-09T06:31:58.215Z,14.53
2023-05-09T06:34:25.214Z,14.69
2023-05-09T06:36:52.775Z,14.89
2023-05-09T06:39:19.721Z,15.11
2023-05-09T06:41:46.798Z,15.36
2023-05-09T06:44:19.569Z,15.59
2023-05-09T06:46:46.676Z,15.73
2023-05-09T06:49:14.399Z,15.83
2023-05-09T06:51:41.352Z,15.94
2023-05-09T06:54:08.291Z,16.09
2023-05-09T06:56:35.357Z,16.28
2023-05-09T06:59:02.243Z,16.52
2023-05-09T07:01:29.284Z,16.76
2023-05-09T07:03:56.232Z,16.96
2023-05-09T07:06:23.153Z,17.54
2023-05-09T07:08:50.031Z,18.83
2023-05-09T07:11:16.995Z,20.02
2023-05-09T07:13:43.906Z,20.84
2023-05-09T07:16:10.951Z,21.01
2023-05-09T07:18:37.919Z,20.67
2023-05-09T07:21:05.091Z,20.27
2023-05-09T07:23:31.962Z,19.93
2023-05-09T07:25:59.181Z,19.78
2023-05-09T07:28:26.312Z,19.97
2023-05-09T07:30:55.634Z,20.73
2023-05-09T07:33:23.006Z,21.85
2023-05-09T07:35:49.939Z,22.57
2023-05-09T07:38:16.895Z,22.51
2023-05-09T07:40:43.839Z,22.28
2023-05-09T07:43:10.742Z,22.41
2023-05-09T07:45:37.708Z,22.75
2023-05-09T07:48:05.359Z,23.26
2023-05-09T07:50:32.360Z,23.25
2023-05-09T07:53:00.257Z,22.31
2023-05-09T07:55:27.148Z,21.01
2023-05-09T07:57:54.052Z,19.88
2023-05-09T08:00:23.919Z,18.97
2023-05-09T08:02:52.133Z,18.22
2023-05-09T08:05:19.297Z,17.69
2023-05-09T08:07:46.444Z,17.22
2023-05-09T08:10:13.382Z,16.73
2023-05-09T08:12:40.422Z,16.35
2023-05-09T08:15:08.282Z,16.10
2023-05-09T08:17:35.543Z,15.95
2023-05-09T08:20:02.543Z,15.90
2023-05-09T08:22:29.479Z,15.86
2023-05-09T08:24:56.430Z,15.81
2023-05-09T08:27:23.418Z,15.79
2023-05-09T08:29:50.649Z,15.80
2023-05-09T08:32:19.977Z,15.77
2023-05-09T08:34:46.895Z,15.80
2023-05-09T08:37:15.283Z,15.84
2023-05-09T08:39:42.728Z,15.85
2023-05-09T08:42:09.786Z,15.81
2023-05-09T08:44:36.859Z,15.80
2023-05-09T08:47:04.324Z,15.81
2023-05-09T08:49:31.277Z,15.82
2023-05-09T08:51:58.204Z,15.86
2023-05-09T08:54:25.166Z,15.92
2023-05-09T08:56:52.059Z,15.93
2023-05-09T08:59:19.746Z,15.97
2023-05-09T09:01:46.804Z,16.03
2023-05-09T09:04:13.795Z,16.10
2023-05-09T09:06:40.957Z,16.17
2023-05-09T09:09:11.270Z,16.22
2023-05-09T09:11:39.174Z,16.17
2023-05-09T09:14:11.957Z,16.03
2023-05-09T09:16:38.907Z,15.87
2023-05-09T09:19:05.909Z,15.75
2023-05-09T09:21:34.448Z,15.71
2023-05-09T09:24:01.385Z,15.74
2023-05-09T09:26:31.927Z,15.72
2023-05-09T09:28:58.854Z,15.72
2023-05-09T09:31:27.624Z,15.73
2023-05-09T09:34:01.549Z,15.74
2023-05-09T09:36:32.606Z,15.75
2023-05-09T09:39:04.817Z,15.82
2023-05-09T09:41:36.361Z,15.97
2023-05-09T09:44:16.495Z,16.11
2023-05-09T09:46:51.100Z,16.26
2023-05-09T09:49:22.478Z,16.37
2023-05-09T09:51:53.896Z,16.44
2023-05-09T09:54:21.496Z,16.50
2023-05-09T09:56:50.075Z,16.54
2023-05-09T09:59:19.775Z,16.53
2023-05-09T10:01:59.024Z,16.50
2023-05-09T10:04:31.326Z,16.49
2023-05-09T10:06:59.894Z,16.46
2023-05-09T10:09:27.571Z,16.43
2023-05-09T10:11:55.725Z,16.40
2023-05-09T10:14:24.126Z,16.38
2023-05-09T10:16:57.801Z,16.44
2023-05-09T10:19:27.313Z,16.53
2023-05-09T10:21:58.378Z,16.59
2023-05-09T10:24:47.856Z,16.68
2023-05-09T10:27:15.195Z,16.70
2023-05-09T10:29:46.964Z,16.68
2023-05-09T10:33:03.146Z,16.71
2023-05-09T10:35:33.744Z,16.72
2023-05-09T10:38:00.919Z,16.70
2023-05-09T10:40:28.492Z,16.66
2023-05-09T10:42:55.567Z,16.62
2023-05-09T10:45:22.685Z,16.62
2023-05-09T10:47:51.682Z,16.68
2023-05-09T10:50:18.964Z,16.74
2023-05-09T10:53:08.925Z,16.78
2023-05-09T10:55:36.672Z,16.79
2023-05-09T10:58:31.604Z,16.79
2023-05-09T11:00:59.386Z,16.80
2023-05-09T11:03:26.947Z,16.75
2023-05-09T11:05:58.277Z,16.71
2023-05-09T11:08:29.448Z,16.69
2023-05-09T11:11:10.829Z,16.68
2023-05-09T11:13:38.623Z,16.68
2023-05-09T11:16:09.821Z,16.66
2023-05-09T11:18:49.359Z,16.66
2023-05-09T11:21:16.429Z,16.68
2023-05-09T11:23:43.241Z,16.69
2023-05-09T11:26:10.227Z,16.71
2023-05-09T11:28:37.912Z,16.74
2023-05-09T11:31:15.159Z,16.78
2023-05-09T11:33:43.241Z,16.81
2023-05-09T11:36:32.082Z,16.83
2023-05-09T11:39:06.577Z,16.81
2023-05-09T11:42:00.068Z,16.81
2023-05-09T11:44:27.983Z,16.80
2023-05-09T11:46:55.514Z,16.76
2023-05-09T11:49:22.429Z,16.72
2023-05-09T11:51:49.294Z,16.71
2023-05-09T11:54:16.312Z,16.68
2023-05-09T11:56:43.174Z,16.65
2023-05-09T11:59:13.279Z,16.58
2023-05-09T12:01:40.296Z,16.53
2023-05-09T12:04:08.622Z,16.51
2023-05-09T12:06:35.689Z,16.51
2023-05-09T12:09:02.706Z,16.48
2023-05-09T12:11:32.529Z,16.46
2023-05-09T12:13:59.511Z,16.40
2023-05-09T12:16:26.480Z,16.36
2023-05-09T12:18:53.482Z,16.37
2023-05-09T12:21:20.848Z,16.36
2023-05-09T12:23:50.725Z,16.39
2023-05-09T12:26:18.799Z,16.39
2023-05-09T12:28:46.060Z,16.40
2023-05-09T12:31:13.278Z,16.47
2023-05-09T12:33:40.253Z,16.57
2023-05-09T12:36:12.603Z,16.68
2023-05-09T12:38:39.505Z,16.75
2023-05-09T12:41:12.994Z,16.75
2023-05-09T12:43:49.449Z,16.67
2023-05-09T12:46:20.269Z,16.53
2023-05-09T12:48:48.398Z,16.35
2023-05-09T12:51:20.372Z,16.19
2023-05-09T12:53:47.220Z,16.05
2023-05-09T12:56:16.591Z,15.93
2023-05-09T12:58:51.449Z,15.84
2023-05-09T13:01:22.922Z,15.77
2023-05-09T13:03:53.843Z,15.76
2023-05-09T13:06:21.349Z,15.81
2023-05-09T13:09:00.590Z,15.85
2023-05-09T13:11:27.517Z,15.90
2023-05-09T13:13:55.205Z,15.91
2023-05-09T13:16:22.336Z,15.95
2023-05-09T13:18:49.254Z,16.01
2023-05-09T13:21:16.394Z,16.06
2023-05-09T13:23:44.679Z,16.12
2023-05-09T13:26:11.591Z,16.20
2023-05-09T13:28:38.489Z,16.28
2023-05-09T13:31:05.492Z,16.33
2023-05-09T13:33:32.485Z,16.37
2023-05-09T13:35:59.342Z,16.39
2023-05-09T13:38:26.409Z,16.33
2023-05-09T13:40:53.404Z,16.29
2023-05-09T13:43:20.298Z,16.25
2023-05-09T13:45:47.256Z,16.20
2023-05-09T13:48:14.390Z,16.15
2023-05-09T13:50:41.609Z,16.08
2023-05-09T13:53:08.607Z,16.05
2023-05-09T13:55:35.767Z,16.03
2023-05-09T13:58:02.710Z,16.03
2023-05-09T14:00:29.663Z,16.04
2023-05-09T14:02:56.541Z,16.06
2023-05-09T14:05:23.576Z,16.07
2023-05-09T14:07:50.504Z,16.08
2023-05-09T14:10:17.903Z,16.09
2023-05-09T14:12:46.851Z,16.10
2023-05-09T14:15:14.156Z,16.10
2023-05-09T14:17:41.565Z,16.07
2023-05-09T14:20:09.286Z,16.02
2023-05-09T14:22:36.145Z,15.96
2023-05-09T14:25:02.974Z,15.91
2023-05-09T14:27:30.230Z,15.87
2023-05-09T14:29:57.687Z,15.81
2023-05-09T14:32:25.461Z,15.76
2023-05-09T14:34:52.307Z,15.71
2023-05-09T14:37:19.268Z,15.68
2023-05-09T14:39:47.030Z,15.65
2023-05-09T14:42:14.498Z,15.61
2023-05-09T14:44:41.878Z,15.57
2023-05-09T14:47:09.974Z,15.51
2023-05-09T14:49:37.998Z,15.43
2023-05-09T14:52:05.671Z,15.35
2023-05-09T14:54:32.823Z,15.29
2023-05-09T14:57:02.108Z,15.26
2023-05-09T14:59:29.724Z,15.26
2023-05-09T15:01:56.557Z,15.23
2023-05-09T15:04:25.751Z,15.21
2023-05-09T15:06:52.687Z,15.18
2023-05-09T15:09:19.711Z,15.15
2023-05-09T15:11:48.864Z,15.15
2023-05-09T15:14:16.943Z,15.16
2023-05-09T15:16:44.372Z,15.17
2023-05-09T15:19:11.510Z,15.17
2023-05-09T15:21:38.550Z,15.14
2023-05-09T15:24:06.366Z,15.11
2023-05-09T15:26:33.333Z,15.07
2023-05-09T15:29:00.163Z,15.03
2023-05-09T15:31:31.748Z,14.98
2023-05-09T15:33:58.819Z,14.94
2023-05-09T15:36:25.686Z,14.91
2023-05-09T15:38:53.004Z,14.87
2023-05-09T15:41:20.061Z,14.83
2023-05-09T15:43:47.010Z,14.78
2023-05-09T15:46:14.110Z,14.72
2023-05-09T15:48:41.210Z,14.68
2023-05-09T15:51:09.686Z,14.66
2023-05-09T15:53:36.577Z,14.64
2023-05-09T15:56:03.925Z,14.62
2023-05-09T15:58:30.906Z,14.59
2023-05-09T16:00:57.826Z,14.56
2023-05-09T16:03:25.193Z,14.54
2023-05-09T16:05:52.443Z,14.49
2023-05-09T16:08:19.256Z,14.48
2023-05-09T16:10:49.252Z,14.46
2023-05-09T16:13:19.088Z,14.45
2023-05-09T16:15:48.234Z,14.43
2023-05-09T16:18:15.220Z,14.40
2023-05-09T16:20:44.218Z,14.36
2023-05-09T16:23:11.639Z,14.30
2023-05-09T16:25:38.768Z,14.24
2023-05-09T16:28:07.316Z,14.19
2023-05-09T16:30:34.709Z,14.12
2023-05-09T16:33:01.638Z,14.07
2023-05-09T16:35:29.051Z,14.02
2023-05-09T16:37:55.989Z,13.96
2023-05-09T16:40:23.038Z,13.90
2023-05-09T16:42:50.008Z,13.84
2023-05-09T16:45:17.076Z,13.79
2023-05-09T16:47:43.975Z,13.73
2023-05-09T16:50:11.270Z,13.66
2023-05-09T16:52:38.152Z,13.62
2023-05-09T16:55:05.938Z,13.57
2023-05-09T16:57:33.440Z,13.52
2023-05-09T17:00:00.442Z,13.47
2023-05-09T17:02:27.548Z,13.42
2023-05-09T17:04:54.909Z,13.36
2023-05-09T17:07:21.872Z,13.32
2023-05-09T17:09:49.764Z,13.27
2023-05-09T17:12:18.598Z,13.22
2023-05-09T17:14:46.857Z,13.18
2023-05-09T17:17:14.808Z,13.14
2023-05-09T17:19:41.681Z,13.09
2023-05-09T17:22:08.859Z,13.05
2023-05-09T17:24:35.766Z,13.00
2023-05-09T17:27:02.837Z,12.95
2023-05-09T17:29:30.816Z,12.88
2023-05-09T17:32:00.979Z,12.82
2023-05-09T17:34:28.585Z,12.78
2023-05-09T17:36:55.447Z,12.73
2023-05-09T17:39:23.031Z,12.68
2023-05-09T17:41:49.918Z,12.63
2023-05-09T17:44:16.868Z,12.58
2023-05-09T17:46:44.173Z,12.52
2023-05-09T17:49:14.130Z,12.47
2023-05-09T17:51:41.275Z,12.41
2023-05-09T17:54:08.194Z,12.37
2023-05-09T17:56:35.106Z,12.33
2023-05-09T17:59:02.059Z,12.30
2023-05-09T18:01:29.236Z,12.28
2023-05-09T18:03:57.243Z,12.24
2023-05-09T18:06:24.392Z,12.19
2023-05-09T18:08:51.526Z,12.16
2023-05-09T18:11:18.350Z,12.13
2023-05-09T18:13:45.179Z,12.12
2023-05-09T18:16:12.166Z,12.10
2023-05-09T18:18:39.302Z,12.09
2023-05-09T18:21:08.129Z,12.08
2023-05-09T18:23:35.149Z,12.06
2023-05-09T18:26:02.197Z,12.04
2023-05-09T18:28:29.053Z,12.01
2023-05-09T18:30:57.745Z,11.99
2023-05-09T18:33:27.083Z,11.99
2023-05-09T18:35:54.476Z,11.98
2023-05-09T18:38:21.683Z,11.97
2023-05-09T18:40:48.735Z,11.95
2023-05-09T18:43:17.103Z,11.94
2023-05-09T18:45:45.195Z,11.91
2023-05-09T18:48:12.650Z,11.87
2023-05-09T18:50:40.315Z,11.85
2023-05-09T18:53:07.718Z,11.82
2023-05-09T18:55:34.724Z,11.80
2023-05-09T18:58:01.672Z,11.78
2023-05-09T19:00:28.554Z,11.75
2023-05-09T19:02:55.487Z,11.73
2023-05-09T19:05:22.631Z,11.70
2023-05-09T19:07:49.825Z,11.68
2023-05-09T19:10:18.286Z,11.66
2023-05-09T19:12:46.261Z,11.63
2023-05-09T19:15:13.307Z,11.60
2023-05-09T19:17:40.482Z,11.57
2023-05-09T19:20:08.751Z,11.54
2023-05-09T19:22:36.333Z,11.53
2023-05-09T19:25:03.189Z,11.51
2023-05-09T19:27:29.985Z,11.49
2023-05-09T19:29:56.974Z,11.46
2023-05-09T19:32:23.819Z,11.42
2023-05-09T19:34:50.725Z,11.39
2023-05-09T19:37:17.710Z,11.36
2023-05-09T19:39:44.656Z,11.32
2023-05-09T19:42:11.613Z,11.29
2023-05-09T19:44:39.098Z,11.27
2023-05-09T19:47:06.135Z,11.24
2023-05-09T19:49:33.192Z,11.22
2023-05-09T19:52:00.147Z,11.21
2023-05-09T19:54:27.235Z,11.20
2023-05-09T19:56:54.421Z,11.19
2023-05-09T19:59:21.393Z,11.19
2023-05-09T20:01:48.422Z,11.17
2023-05-09T20:04:16.554Z,11.16
2023-05-09T20:06:43.483Z,11.15
2023-05-09T20:09:10.357Z,11.15
2023-05-09T20:11:37.274Z,11.13
2023-05-09T20:14:04.126Z,11.11
2023-05-09T20:16:31.126Z,11.10
2023-05-09T20:18:58.658Z,11.10
2023-05-09T20:21:27.321Z,11.09
2023-05-09T20:23:54.157Z,11.08
2023-05-09T20:26:24.455Z,11.08
2023-05-09T20:28:54.588Z,11.07
2023-05-09T20:31:21.390Z,11.06
2023-05-09T20:33:48.189Z,11.06
2023-05-09T20:36:15.524Z,11.06
2023-05-09T20:38:42.430Z,11.06
2023-05-09T20:41:09.284Z,11.05
2023-05-09T20:43:36.395Z,11.05
2023-05-09T20:46:03.428Z,11.04
2023-05-09T20:48:30.351Z,11.04
2023-05-09T20:50:57.220Z,11.03
2023-05-09T20:53:26.614Z,11.02
2023-05-09T20:55:53.864Z,11.02
2023-05-09T20:58:20.698Z,11.01
2023-05-09T21:00:47.923Z,10.99
2023-05-09T21:03:15.035Z,10.99
2023-05-09T21:05:41.968Z,10.99
2023-05-09T21:08:08.839Z,10.98
2023-05-09T21:10:35.645Z,10.98
2023-05-09T21:13:02.534Z,10.99
2023-05-09T21:15:29.346Z,10.99
2023-05-09T21:17:56.187Z,10.98
2023-05-09T21:20:23.061Z,10.98
2023-05-09T21:22:49.912Z,10.97
2023-05-09T21:25:17.642Z,10.95
2023-05-09T21:27:44.562Z,10.94
2023-05-09T21:30:11.895Z,10.93
2023-05-09T21:32:38.726Z,10.92
2023-05-09T21:35:10.806Z,10.90
2023-05-09T21:37:37.762Z,10.88
2023-05-09T21:40:05.962Z,10.86
2023-05-09T21:42:32.983Z,10.84
2023-05-09T21:44:59.821Z,10.82
2023-05-09T21:47:27.229Z,10.80
2023-05-09T21:49:54.858Z,10.77
2023-05-09T21:52:23.685Z,10.76
2023-05-09T21:54:50.558Z,10.74
2023-05-09T21:57:17.451Z,10.72
2023-05-09T21:59:44.531Z,10.69
2023-05-09T22:02:11.434Z,10.67
2023-05-09T22:04:40.321Z,10.66
2023-05-09T22:07:07.538Z,10.63
2023-05-09T22:09:34.869Z,10.62
2023-05-09T22:12:01.741Z,10.59
2023-05-09T22:14:28.669Z,10.57
2023-05-09T22:16:55.497Z,10.55
2023-05-09T22:19:22.368Z,10.54
2023-05-09T22:21:49.467Z,10.52
2023-05-09T22:24:16.375Z,10.50
2023-05-09T22:26:43.427Z,10.48
2023-05-09T22:29:10.587Z,10.46
2023-05-09T22:31:37.425Z,10.44
2023-05-09T22:34:04.376Z,10.42
2023-05-09T22:36:32.358Z,10.40
2023-05-09T22:38:59.307Z,10.39
2023-05-09T22:41:26.367Z,10.37
2023-05-09T22:43:53.210Z,10.36
2023-05-09T22:46:20.260Z,10.36
2023-05-09T22:48:47.211Z,10.35
2023-05-09T22:51:15.199Z,10.35
2023-05-09T22:53:42.169Z,10.35
2023-05-09T22:56:09.601Z,10.35
2023-05-09T22:58:36.760Z,10.35
2023-05-09T23:01:04.035Z,10.34
2023-05-09T23:03:31.012Z,10.35
2023-05-09T23:05:57.921Z,10.35
2023-05-09T23:08:24.880Z,10.36
2023-05-09T23:10:51.778Z,10.36
2023-05-09T23:13:18.691Z,10.37
2023-05-09T23:15:47.108Z,10.37
2023-05-09T23:18:14.152Z,10.37
2023-05-09T23:20:41.021Z,10.38
2023-05-09T23:23:07.908Z,10.38
2023-05-09T23:25:34.756Z,10.39
2023-05-09T23:28:01.620Z,10.40
2023-05-09T23:30:28.461Z,10.39
2023-05-09T23:32:56.464Z,10.40
2023-05-09T23:35:23.720Z,10.41
2023-05-09T23:37:50.748Z,10.42
2023-05-09T23:40:17.914Z,10.42
2023-05-09T23:42:44.959Z,10.43
2023-05-09T23:45:12.890Z,10.44
2023-05-09T23:47:39.794Z,10.44
2023-05-09T23:50:07.755Z,10.43
2023-05-09T23:52:34.732Z,10.42
2023-05-09T23:55:02.070Z,10.42
2023-05-09T23:57:29.012Z,10.40
2023-05-09T23:59:55.806Z,10.37
